Time;durP1;ratioP1;P1;durP2;ratioP2;P2;SDS_P1;SDS_P2;PMS_P1;PMS_P2;Temp;Humidity;BMP_temperature;BMP_pressure;BME280_temperature;BME280_humidity;BME280_pressure;Samples;Min_cycle;Max_cycle;Signal;HPM_P1;HPM_P2
2021/12/01 00:00:08;;;;;;;26.15;21.48;;;9.70;97.10;;;;;;2073291;28;20072;-89
2021/12/01 00:01:09;;;;;;;23.70;20.08;;;9.70;97.10;;;;;;2066996;28;20030;-90
2021/12/01 00:02:10;;;;;;;25.80;20.25;;;9.70;97.10;;;;;;2065445;28;20078;-90
2021/12/01 00:03:11;;;;;;;23.50;18.90;;;9.70;97.10;;;;;;2073668;28;20502;-89
2021/12/01 00:04:11;;;;;;;24.25;19.23;;;9.70;97.10;;;;;;2081443;28;20037;-90
2021/12/01 00:05:12;;;;;;;23.33;18.48;;;9.70;97.10;;;;;;2081325;28;20076;-89
2021/12/01 00:06:12;;;;;;;24.02;18.50;;;9.70;97.10;;;;;;2073379;28;20089;-89
2021/12/01 00:07:13;;;;;;;22.38;19.10;;;9.70;97.10;;;;;;2082018;28;20120;-91
2021/12/01 00:08:14;;;;;;;22.05;18.15;;;9.70;97.10;;;;;;2088622;28;20156;-90
2021/12/01 00:09:15;;;;;;;24.30;19.20;;;9.70;97.10;;;;;;2081944;28;20030;-90
2021/12/01 00:10:17;;;;;;;22.73;17.70;;;9.70;97.10;;;;;;2072882;28;20033;-90
2021/12/01 00:11:17;;;;;;;19.77;16.50;;;9.70;97.10;;;;;;2065254;28;20026;-89
2021/12/01 00:12:18;;;;;;;19.90;16.48;;;9.70;97.10;;;;;;2081522;28;20435;-89
2021/12/01 00:13:21;;;;;;;19.45;16.30;;;9.70;97.10;;;;;;2089055;28;20120;-90
2021/12/01 00:14:21;;;;;;;19.50;15.43;;;9.70;97.10;;;;;;2087601;28;20017;-89
2021/12/01 00:15:22;;;;;;;18.92;15.82;;;9.70;97.10;;;;;;2072852;28;20122;-90
2021/12/01 00:16:23;;;;;;;17.70;14.10;;;9.70;97.10;;;;;;2067952;28;20026;-89
2021/12/01 00:17:25;;;;;;;16.65;14.05;;;9.70;97.10;;;;;;2068984;28;20062;-92
2021/12/01 00:18:26;;;;;;;15.88;13.82;;;9.80;97.10;;;;;;2062782;28;20103;-90
2021/12/01 00:19:29;;;;;;;18.52;13.70;;;9.70;97.10;;;;;;2093182;28;20017;-91
2021/12/01 00:20:30;;;;;;;15.70;13.48;;;9.70;97.10;;;;;;2085254;28;20026;-91
2021/12/01 00:21:31;;;;;;;15.00;12.55;;;9.70;97.10;;;;;;2085425;28;20037;-91
2021/12/01 00:22:31;;;;;;;14.70;12.65;;;9.80;97.10;;;;;;2094143;28;20024;-91
2021/12/01 00:23:32;;;;;;;14.30;12.80;;;9.80;97.10;;;;;;2093020;28;20029;-91
2021/12/01 00:24:33;;;;;;;15.48;12.68;;;9.70;97.10;;;;;;2084435;28;20026;-90
2021/12/01 00:25:39;;;;;;;14.30;12.45;;;9.80;97.10;;;;;;2065856;28;20037;-91
2021/12/01 00:26:39;;;;;;;13.77;11.15;;;9.80;97.10;;;;;;2075397;28;20092;-91
2021/12/01 00:27:42;;;;;;;13.13;11.73;;;9.80;97.10;;;;;;2090766;28;20120;-91
2021/12/01 00:28:43;;;;;;;14.60;11.82;;;9.80;97.10;;;;;;2089764;28;20104;-90
2021/12/01 00:29:43;;;;;;;12.98;10.82;;;9.80;97.10;;;;;;2081497;28;20038;-90
2021/12/01 00:30:44;;;;;;;13.68;11.25;;;9.80;97.10;;;;;;2081124;28;20033;-90
2021/12/01 00:31:45;;;;;;;12.60;10.70;;;9.80;97.10;;;;;;2090501;28;20064;-90
2021/12/01 00:32:46;;;;;;;11.68;10.05;;;9.80;97.10;;;;;;2089783;28;20029;-90
2021/12/01 00:33:46;;;;;;;12.18;10.35;;;9.80;97.10;;;;;;2081057;28;20064;-90
2021/12/01 00:34:47;;;;;;;11.95;9.85;;;9.80;97.10;;;;;;2073374;28;20491;-90
2021/12/01 00:35:54;;;;;;;10.55;9.45;;;9.80;97.10;;;;;;2080004;28;20096;-91
2021/12/01 00:36:55;;;;;;;9.95;8.73;;;9.80;97.10;;;;;;2088729;28;20503;-90
2021/12/01 00:37:56;;;;;;;10.40;9.30;;;9.80;97.10;;;;;;2068141;28;20037;-90
2021/12/01 00:38:56;;;;;;;10.15;8.93;;;9.80;97.10;;;;;;2059365;28;20039;-90
2021/12/01 00:39:57;;;;;;;10.85;8.85;;;9.90;97.20;;;;;;2077947;28;20071;-90
2021/12/01 00:40:58;;;;;;;10.10;8.63;;;9.90;97.20;;;;;;2077058;28;20031;-91
2021/12/01 00:42:00;;;;;;;9.82;8.40;;;9.80;97.10;;;;;;2070884;28;20029;-91
2021/12/01 00:43:01;;;;;;;9.30;8.27;;;9.90;97.20;;;;;;2081804;28;20033;-90
2021/12/01 00:44:02;;;;;;;9.70;8.20;;;9.90;97.20;;;;;;2081637;28;20021;-90
2021/12/01 00:45:12;;;;;;;8.82;7.90;;;9.90;97.20;;;;;;2073533;28;20083;-90
2021/12/01 00:46:36;;;;;;;9.23;8.17;;;9.90;97.20;;;;;;2087872;28;20028;-89
2021/12/01 00:47:44;;;;;;;8.40;7.30;;;9.90;97.20;;;;;;2087814;28;20370;-90
2021/12/01 00:48:45;;;;;;;8.07;6.88;;;9.90;97.20;;;;;;2090351;28;20021;-90
2021/12/01 00:49:45;;;;;;;7.85;6.90;;;9.90;97.10;;;;;;2088445;28;20514;-90
2021/12/01 00:50:47;;;;;;;8.52;7.10;;;9.90;97.10;;;;;;2064949;28;20031;-90
2021/12/01 00:51:48;;;;;;;9.32;6.88;;;9.90;97.10;;;;;;2058151;28;20398;-90
2021/12/01 00:52:54;;;;;;;8.30;7.10;;;9.90;97.10;;;;;;2065462;28;20031;-91
2021/12/01 00:53:54;;;;;;;7.88;6.57;;;9.90;97.10;;;;;;2070953;28;20030;-91
2021/12/01 00:54:55;;;;;;;8.68;6.53;;;9.90;97.10;;;;;;2074037;28;20036;-89
2021/12/01 00:55:56;;;;;;;7.65;6.07;;;9.90;97.20;;;;;;2081264;28;20033;-90
2021/12/01 00:56:57;;;;;;;6.60;5.60;;;9.90;97.20;;;;;;2089947;28;20180;-90
2021/12/01 00:57:58;;;;;;;6.68;5.57;;;9.90;97.20;;;;;;2088801;28;20138;-89
2021/12/01 00:59:00;;;;;;;6.65;5.60;;;9.90;97.20;;;;;;2090015;28;20108;-90
2021/12/01 01:00:04;;;;;;;7.40;5.50;;;9.90;97.20;;;;;;2073687;28;20022;-90
2021/12/01 01:01:05;;;;;;;6.47;5.43;;;9.90;97.20;;;;;;2073858;28;20072;-90
2021/12/01 01:02:06;;;;;;;6.53;5.47;;;10.00;97.20;;;;;;2080913;28;20018;-91
2021/12/01 01:03:08;;;;;;;6.28;5.00;;;9.90;97.20;;;;;;2081589;28;20037;-90
2021/12/01 01:04:09;;;;;;;7.20;5.75;;;10.00;97.20;;;;;;2081821;28;20026;-90
2021/12/01 01:05:10;;;;;;;6.00;5.22;;;9.90;97.20;;;;;;2081620;28;20025;-92
2021/12/01 01:06:11;;;;;;;6.85;5.28;;;10.00;97.20;;;;;;2089285;28;20051;-91
2021/12/01 01:07:12;;;;;;;6.28;5.32;;;9.90;97.20;;;;;;2089387;28;20037;-91
2021/12/01 01:08:15;;;;;;;6.63;5.05;;;10.00;97.30;;;;;;2089689;28;20048;-90
2021/12/01 01:09:16;;;;;;;6.22;5.03;;;10.00;97.20;;;;;;2081845;28;20040;-90
2021/12/01 01:17:18;;;;;;;6.03;4.70;;;9.90;97.20;;;;;;2062550;28;20153;-91
2021/12/01 01:18:18;;;;;;;5.60;4.47;;;9.90;97.20;;;;;;2065401;28;20101;-90
2021/12/01 01:19:20;;;;;;;5.65;4.60;;;9.90;97.20;;;;;;2057091;28;20114;-91
2021/12/01 01:20:21;;;;;;;6.93;4.85;;;9.90;97.20;;;;;;2065629;28;20026;-90
2021/12/01 01:21:23;;;;;;;6.07;4.88;;;9.90;97.20;;;;;;2066102;28;20069;-91
2021/12/01 01:22:23;;;;;;;5.80;4.93;;;10.00;97.20;;;;;;2072264;28;20415;-90
2021/12/01 01:23:26;;;;;;;6.65;5.30;;;10.00;97.20;;;;;;2048692;28;20130;-91
2021/12/01 01:24:28;;;;;;;7.88;5.63;;;9.90;97.20;;;;;;2058797;28;20031;-87
2021/12/01 01:25:29;;;;;;;6.38;5.43;;;10.00;97.20;;;;;;2057934;28;20453;-88
2021/12/01 01:26:31;;;;;;;8.07;5.18;;;10.00;97.20;;;;;;2051975;28;20019;-89
2021/12/01 01:27:32;;;;;;;6.80;5.78;;;10.00;97.20;;;;;;2059695;28;20034;-87
2021/12/01 01:28:33;;;;;;;6.82;5.40;;;10.00;97.20;;;;;;2078728;28;20044;-90
2021/12/01 01:29:36;;;;;;;6.82;5.35;;;10.00;97.30;;;;;;2087198;28;20119;-90
2021/12/01 01:30:37;;;;;;;7.53;5.60;;;10.00;97.30;;;;;;2081719;28;20488;-90
2021/12/01 01:31:37;;;;;;;6.03;4.90;;;10.00;97.30;;;;;;2076489;28;20030;-90
2021/12/01 01:32:38;;;;;;;6.97;5.32;;;10.00;97.30;;;;;;2077198;28;20097;-89
2021/12/01 01:33:39;;;;;;;7.00;5.47;;;10.00;97.30;;;;;;2074190;28;20069;-89
2021/12/01 01:34:40;;;;;;;6.65;5.45;;;10.00;97.30;;;;;;2070967;28;20053;-88
2021/12/01 01:35:40;;;;;;;6.72;5.47;;;10.00;97.30;;;;;;2080691;28;20033;-89
2021/12/01 01:36:41;;;;;;;6.65;5.53;;;10.00;97.30;;;;;;2069250;28;20027;-89
2021/12/01 01:37:42;;;;;;;7.47;5.72;;;10.00;97.30;;;;;;2059608;28;20035;-91
2021/12/01 01:38:43;;;;;;;7.53;5.60;;;10.00;97.30;;;;;;2056974;28;20031;-90
2021/12/01 01:39:46;;;;;;;7.03;6.18;;;10.00;97.30;;;;;;2065352;28;20050;-89
2021/12/01 01:40:47;;;;;;;7.47;6.47;;;10.00;97.30;;;;;;2064498;28;20517;-89
2021/12/01 01:41:47;;;;;;;7.88;6.22;;;10.00;97.30;;;;;;2064596;28;20090;-89
2021/12/01 01:42:48;;;;;;;7.22;5.95;;;10.00;97.30;;;;;;2056276;28;20033;-89
2021/12/01 01:43:51;;;;;;;7.30;5.60;;;10.00;97.30;;;;;;2065028;28;20070;-90
2021/12/01 01:44:52;;;;;;;6.80;5.50;;;10.00;97.30;;;;;;2057436;28;20030;-90
2021/12/01 01:45:54;;;;;;;5.97;5.15;;;10.10;97.30;;;;;;2057260;28;20063;-90
2021/12/01 01:46:55;;;;;;;6.28;5.20;;;10.10;97.30;;;;;;2065245;28;20081;-90
2021/12/01 01:48:14;;;;;;;6.25;5.10;;;10.00;97.30;;;;;;2065353;28;20070;-90
2021/12/01 01:49:35;;;;;;;7.07;5.10;;;10.10;97.30;;;;;;2063759;28;20038;-90
2021/12/01 01:50:39;;;;;;;6.97;4.90;;;10.10;97.20;;;;;;2059528;28;20077;-90
2021/12/01 01:51:40;;;;;;;5.85;4.95;;;10.10;97.20;;;;;;2068331;28;20109;-90
2021/12/01 01:52:41;;;;;;;6.60;5.05;;;10.00;97.50;;;;;;2065423;28;20033;-90
2021/12/01 01:53:41;;;;;;;7.07;4.78;;;10.00;97.20;;;;;;2052091;28;20039;-91
2021/12/01 01:54:42;;;;;;;6.50;4.32;;;10.00;97.20;;;;;;2057262;28;20506;-90
2021/12/01 01:55:49;;;;;;;5.78;4.43;;;10.00;97.20;;;;;;2041020;28;20106;-91
2021/12/01 01:56:49;;;;;;;5.05;3.95;;;10.00;97.20;;;;;;2042718;28;20035;-90
2021/12/01 01:57:50;;;;;;;4.97;3.88;;;10.10;97.20;;;;;;2057218;28;20073;-90
2021/12/01 01:58:51;;;;;;;5.90;4.30;;;10.00;97.20;;;;;;2053489;28;20031;-91
2021/12/01 01:59:52;;;;;;;5.38;3.88;;;10.00;97.20;;;;;;2049270;28;20031;-91
2021/12/01 02:01:08;;;;;;;5.43;4.22;;;10.00;97.30;;;;;;2051095;28;20031;-90
2021/12/01 02:02:09;;;;;;;5.20;3.92;;;10.00;97.20;;;;;;2057978;28;20019;-91
2021/12/01 02:03:14;;;;;;;4.43;3.33;;;10.00;97.20;;;;;;2064898;28;20041;-91
2021/12/01 02:04:16;;;;;;;5.13;3.67;;;10.00;97.20;;;;;;2064298;28;20050;-90
2021/12/01 02:05:17;;;;;;;5.05;3.78;;;10.00;97.20;;;;;;2065028;28;20035;-90
2021/12/01 02:06:23;;;;;;;4.68;3.70;;;10.00;97.20;;;;;;2064907;28;20034;-90
2021/12/01 02:07:23;;;;;;;5.55;3.90;;;10.00;97.20;;;;;;2068172;28;20225;-89
2021/12/01 02:08:31;;;;;;;5.13;3.70;;;10.00;97.20;;;;;;2056770;28;20035;-90
2021/12/01 02:09:32;;;;;;;6.28;3.90;;;10.00;97.20;;;;;;2058844;28;20023;-90
2021/12/01 02:10:33;;;;;;;5.68;3.85;;;10.00;97.20;;;;;;2074100;28;20037;-90
2021/12/01 02:11:34;;;;;;;4.95;3.55;;;10.00;97.20;;;;;;2074703;28;20032;-91
2021/12/01 02:12:37;;;;;;;4.18;2.92;;;10.00;97.20;;;;;;2089448;28;20033;-90
2021/12/01 02:13:41;;;;;;;4.72;3.58;;;10.00;97.20;;;;;;2087560;28;20036;-90
2021/12/01 02:14:41;;;;;;;5.55;3.40;;;9.90;97.20;;;;;;2089152;28;20471;-90
2021/12/01 02:15:44;;;;;;;4.30;3.05;;;10.00;97.20;;;;;;2090138;28;20029;-90
2021/12/01 02:16:45;;;;;;;5.10;3.60;;;10.00;97.20;;;;;;2089317;28;20040;-90
2021/12/01 02:17:45;;;;;;;4.72;3.22;;;9.90;97.50;;;;;;2089577;28;20025;-91
2021/12/01 02:18:46;;;;;;;4.32;3.30;;;9.90;97.20;;;;;;2080978;28;20071;-90
2021/12/01 02:19:51;;;;;;;4.00;3.00;;;9.90;97.20;;;;;;2081012;28;20026;-91
2021/12/01 02:21:17;;;;;;;4.68;3.20;;;9.90;97.20;;;;;;2073146;28;20030;-91
2021/12/01 02:22:18;;;;;;;4.30;3.05;;;9.90;97.20;;;;;;2080048;28;20032;-90
2021/12/01 02:23:18;;;;;;;4.35;3.33;;;9.90;97.50;;;;;;2065051;28;20030;-91
2021/12/01 02:24:21;;;;;;;5.18;3.33;;;9.90;97.20;;;;;;2064079;28;20094;-91
2021/12/01 02:25:25;;;;;;;4.45;3.30;;;9.90;97.20;;;;;;2073122;28;20026;-91
2021/12/01 02:26:28;;;;;;;5.57;3.60;;;9.90;97.20;;;;;;2089681;28;20028;-90
2021/12/01 02:27:29;;;;;;;4.32;3.35;;;9.90;97.20;;;;;;2088764;28;20050;-91
2021/12/01 02:28:30;;;;;;;4.60;3.53;;;9.90;97.20;;;;;;2064512;28;20034;-90
2021/12/01 02:29:31;;;;;;;5.10;3.40;;;9.90;97.20;;;;;;2073252;28;20022;-91
2021/12/01 02:30:31;;;;;;;5.30;3.67;;;9.90;97.20;;;;;;2089967;28;20036;-91
2021/12/01 02:31:36;;;;;;;5.60;3.70;;;9.80;97.20;;;;;;2080570;28;20458;-90
2021/12/01 02:32:37;;;;;;;5.45;3.65;;;9.80;97.20;;;;;;2078620;28;20067;-89
2021/12/01 02:33:38;;;;;;;5.05;3.38;;;9.80;97.20;;;;;;2082302;28;20116;-90
2021/12/01 02:34:41;;;;;;;5.53;4.03;;;9.80;97.20;;;;;;2080383;28;20455;-89
2021/12/01 02:35:42;;;;;;;4.75;3.65;;;9.80;97.20;;;;;;2081746;28;20037;-90
2021/12/01 02:36:46;;;;;;;4.75;3.60;;;9.80;97.20;;;;;;2074135;28;20072;-90
2021/12/01 02:37:47;;;;;;;4.88;3.63;;;9.80;97.20;;;;;;2075224;28;20615;-90
2021/12/01 02:38:48;;;;;;;4.82;3.67;;;9.80;97.20;;;;;;2082441;28;20029;-89
2021/12/01 02:39:51;;;;;;;4.93;3.28;;;9.80;97.30;;;;;;2082671;28;20091;-90
2021/12/01 02:40:52;;;;;;;4.55;3.55;;;9.80;97.20;;;;;;2083737;28;20033;-90
2021/12/01 02:41:56;;;;;;;4.05;3.17;;;9.80;97.20;;;;;;2090228;28;20028;-90
2021/12/01 02:42:57;;;;;;;5.90;3.38;;;9.80;97.30;;;;;;2089818;28;20032;-90
2021/12/01 02:43:59;;;;;;;4.32;3.28;;;9.80;97.50;;;;;;2082116;28;20120;-89
2021/12/01 02:45:00;;;;;;;4.40;3.30;;;9.80;97.20;;;;;;2090187;28;20048;-90
2021/12/01 02:46:01;;;;;;;4.28;3.28;;;9.80;97.20;;;;;;2091307;28;20483;-89
2021/12/01 02:47:03;;;;;;;3.63;2.92;;;9.80;97.20;;;;;;2091393;28;20024;-89
2021/12/01 02:48:04;;;;;;;4.18;3.05;;;9.70;97.20;;;;;;2091347;28;20396;-90
2021/12/01 02:49:06;;;;;;;3.78;2.83;;;9.80;97.20;;;;;;2090711;28;20032;-89
2021/12/01 02:50:07;;;;;;;4.63;3.40;;;9.80;97.20;;;;;;2082491;28;20068;-91
2021/12/01 02:51:09;;;;;;;4.28;3.00;;;9.70;97.20;;;;;;2083341;28;20037;-90
2021/12/01 02:52:10;;;;;;;3.85;2.83;;;9.80;97.20;;;;;;2074690;28;20053;-89
2021/12/01 02:53:11;;;;;;;4.28;3.15;;;9.70;97.20;;;;;;2075647;28;20121;-90
2021/12/01 02:54:12;;;;;;;3.65;2.92;;;9.70;97.20;;;;;;2096216;28;20033;-88
2021/12/01 02:55:15;;;;;;;4.20;2.97;;;9.70;97.20;;;;;;2093019;28;20010;-86
2021/12/01 02:56:19;;;;;;;5.15;3.15;;;9.70;97.20;;;;;;2077217;28;20026;-90
2021/12/01 02:57:20;;;;;;;4.20;3.13;;;9.70;97.50;;;;;;2076026;28;20030;-90
2021/12/01 02:58:22;;;;;;;4.45;3.42;;;9.70;97.20;;;;;;2065530;28;20117;-90
2021/12/01 02:59:23;;;;;;;5.18;3.65;;;9.70;97.20;;;;;;2066881;28;20121;-91
2021/12/01 03:00:24;;;;;;;5.40;3.38;;;9.70;97.20;;;;;;2082833;28;20025;-91
2021/12/01 03:01:25;;;;;;;4.53;3.53;;;9.60;97.20;;;;;;2079956;28;20029;-90
2021/12/01 03:02:26;;;;;;;4.28;3.45;;;9.60;97.20;;;;;;2063444;28;20121;-91
2021/12/01 03:03:27;;;;;;;3.78;3.10;;;9.60;97.20;;;;;;2065686;28;20037;-90
2021/12/01 03:04:29;;;;;;;3.85;3.35;;;9.60;97.20;;;;;;2082339;28;20488;-90
2021/12/01 03:05:30;;;;;;;3.92;3.15;;;9.60;97.20;;;;;;2074632;28;20026;-88
2021/12/01 03:06:33;;;;;;;4.07;3.35;;;9.60;97.20;;;;;;2066189;28;20054;-89
2021/12/01 03:07:34;;;;;;;3.45;2.90;;;9.60;97.20;;;;;;2074977;28;20435;-88
2021/12/01 03:08:35;;;;;;;3.67;3.10;;;9.60;97.20;;;;;;2083169;28;20030;-87
2021/12/01 03:09:36;;;;;;;4.15;3.20;;;9.60;97.20;;;;;;2084784;28;20029;-87
2021/12/01 03:10:37;;;;;;;4.05;3.15;;;9.60;97.20;;;;;;2075006;28;20492;-87
2021/12/01 03:11:38;;;;;;;4.15;2.97;;;9.50;97.20;;;;;;2075143;28;20030;-89
2021/12/01 03:12:40;;;;;;;3.90;3.33;;;9.50;97.20;;;;;;2074260;28;20124;-90
2021/12/01 03:13:41;;;;;;;4.00;2.90;;;9.50;97.20;;;;;;2081442;28;20040;-90
2021/12/01 03:14:42;;;;;;;4.47;2.63;;;9.50;97.20;;;;;;2090769;28;20029;-91
2021/12/01 03:15:42;;;;;;;4.10;3.00;;;9.50;97.20;;;;;;2090318;28;20169;-90
2021/12/01 03:16:44;;;;;;;3.30;2.72;;;9.50;97.50;;;;;;2090656;28;20120;-90
2021/12/01 03:17:45;;;;;;;3.35;2.50;;;9.50;97.20;;;;;;2081844;28;20029;-89
2021/12/01 03:18:46;;;;;;;4.32;2.50;;;9.50;97.20;;;;;;2074280;28;20484;-91
2021/12/01 03:19:47;;;;;;;3.53;2.55;;;9.50;97.20;;;;;;2090412;28;20036;-90
2021/12/01 03:20:49;;;;;;;3.30;2.60;;;9.50;97.50;;;;;;2074586;28;20058;-90
2021/12/01 03:21:50;;;;;;;3.13;2.65;;;9.50;97.20;;;;;;2082382;28;20017;-89
2021/12/01 03:22:50;;;;;;;3.72;2.65;;;9.40;97.20;;;;;;2075486;28;20069;-91
2021/12/01 03:23:51;;;;;;;2.88;2.40;;;9.50;97.20;;;;;;2069316;28;20061;-91
2021/12/01 03:24:52;;;;;;;3.80;2.90;;;9.50;97.20;;;;;;2077369;28;20030;-91
2021/12/01 03:25:53;;;;;;;3.67;2.95;;;9.40;97.20;;;;;;2093162;28;20154;-90
2021/12/01 03:26:54;;;;;;;3.80;2.83;;;9.50;97.20;;;;;;2093934;28;20033;-89
2021/12/01 03:27:55;;;;;;;3.92;2.88;;;9.40;97.20;;;;;;2084823;28;20036;-91
2021/12/01 03:28:56;;;;;;;3.42;2.88;;;9.40;97.20;;;;;;2085489;28;20036;-90
2021/12/01 03:29:57;;;;;;;3.90;2.50;;;9.40;97.20;;;;;;2085874;28;20423;-90
2021/12/01 03:30:57;;;;;;;3.80;2.70;;;9.40;97.20;;;;;;2082699;28;20029;-90
2021/12/01 03:31:58;;;;;;;3.10;2.60;;;9.40;97.20;;;;;;2073821;28;20022;-90
2021/12/01 03:32:58;;;;;;;3.03;2.47;;;9.40;97.20;;;;;;2072570;28;20048;-90
2021/12/01 03:33:59;;;;;;;3.33;2.45;;;9.40;97.20;;;;;;2073673;28;20485;-91
2021/12/01 03:35:02;;;;;;;3.35;2.30;;;9.40;97.20;;;;;;2090454;28;20131;-92
2021/12/01 03:36:03;;;;;;;3.25;2.45;;;9.40;97.30;;;;;;2081989;28;20026;-90
2021/12/01 03:37:04;;;;;;;2.67;2.13;;;9.40;97.30;;;;;;2074238;28;20022;-90
2021/12/01 03:38:06;;;;;;;5.28;2.50;;;9.40;97.20;;;;;;2073947;28;20026;-91
2021/12/01 03:39:07;;;;;;;2.83;2.25;;;9.40;97.30;;;;;;2080922;28;20507;-91
2021/12/01 03:40:09;;;;;;;2.88;2.40;;;9.40;97.20;;;;;;2073926;28;20116;-90
2021/12/01 03:41:10;;;;;;;3.33;2.60;;;9.40;97.30;;;;;;2082292;28;20037;-90
2021/12/01 03:42:10;;;;;;;2.80;2.20;;;9.30;97.20;;;;;;2080793;28;20021;-91
2021/12/01 03:43:12;;;;;;;3.30;2.60;;;9.30;97.20;;;;;;2081526;28;20041;-91
2021/12/01 03:44:12;;;;;;;2.95;2.20;;;9.30;97.20;;;;;;2087646;28;20080;-90
2021/12/01 03:45:14;;;;;;;2.67;2.20;;;9.30;97.20;;;;;;2082019;28;20553;-90
2021/12/01 03:46:16;;;;;;;3.63;2.40;;;9.30;97.20;;;;;;2089784;28;20025;-90
2021/12/01 03:47:17;;;;;;;3.40;2.60;;;9.30;97.20;;;;;;2089556;28;20036;-90
2021/12/01 03:48:17;;;;;;;2.78;2.17;;;9.30;97.20;;;;;;2077814;28;20540;-91
2021/12/01 03:49:20;;;;;;;3.42;2.58;;;9.30;97.20;;;;;;2066031;28;20018;-90
2021/12/01 03:50:20;;;;;;;3.10;2.47;;;9.30;97.20;;;;;;2074531;28;20126;-91
2021/12/01 03:51:21;;;;;;;4.35;2.80;;;9.30;97.20;;;;;;2081796;28;20480;-90
2021/12/01 03:52:23;;;;;;;3.30;2.70;;;9.30;97.20;;;;;;2088989;28;20021;-90
2021/12/01 03:53:24;;;;;;;2.92;2.38;;;9.30;97.20;;;;;;2089981;28;20474;-91
2021/12/01 03:54:26;;;;;;;3.05;2.20;;;9.30;97.20;;;;;;2090427;28;20020;-90
2021/12/01 03:55:28;;;;;;;3.35;2.20;;;9.30;97.20;;;;;;2090973;28;20045;-91
2021/12/01 03:56:30;;;;;;;3.20;1.92;;;9.30;97.20;;;;;;2082103;28;20029;-91
2021/12/01 03:57:31;;;;;;;2.95;2.22;;;9.30;97.20;;;;;;2082056;28;20029;-90
2021/12/01 03:58:32;;;;;;;3.00;2.35;;;9.30;97.20;;;;;;2073742;28;20030;-91
2021/12/01 03:59:32;;;;;;;4.25;2.60;;;9.30;97.20;;;;;;2089070;28;20033;-92
2021/12/01 04:00:33;;;;;;;3.20;2.50;;;9.30;97.20;;;;;;2073794;28;20025;-90
2021/12/01 04:01:34;;;;;;;3.05;2.45;;;9.20;97.20;;;;;;2073457;28;20554;-91
2021/12/01 04:02:35;;;;;;;2.88;2.22;;;9.20;97.10;;;;;;2075347;28;20098;-90
2021/12/01 04:03:36;;;;;;;2.97;2.28;;;9.20;97.20;;;;;;2081950;28;20095;-90
2021/12/01 04:04:37;;;;;;;3.05;2.30;;;9.30;97.20;;;;;;2096916;28;20032;-90
2021/12/01 04:05:37;;;;;;;3.35;2.45;;;9.20;97.10;;;;;;2082062;28;20025;-90
2021/12/01 04:06:38;;;;;;;3.28;2.38;;;9.20;97.10;;;;;;2081987;28;20452;-89
2021/12/01 04:07:39;;;;;;;3.92;2.85;;;9.20;97.20;;;;;;2084241;28;20431;-90
2021/12/01 04:08:40;;;;;;;5.00;2.65;;;9.20;97.10;;;;;;2086817;28;20111;-91
2021/12/01 04:09:44;;;;;;;3.85;2.60;;;9.20;97.10;;;;;;2081644;28;20100;-90
2021/12/01 04:10:44;;;;;;;3.30;2.38;;;9.20;97.10;;;;;;2072879;28;20014;-89
2021/12/01 04:11:45;;;;;;;3.75;2.80;;;9.20;97.10;;;;;;2073132;28;20124;-88
2021/12/01 04:12:46;;;;;;;3.38;2.70;;;9.20;97.10;;;;;;2072734;28;20065;-90
2021/12/01 04:13:47;;;;;;;3.72;2.60;;;9.20;97.10;;;;;;2090288;28;20052;-90
2021/12/01 04:14:48;;;;;;;3.05;2.45;;;9.20;97.10;;;;;;2090471;28;20025;-90
2021/12/01 04:15:49;;;;;;;4.00;2.40;;;9.20;97.10;;;;;;2089788;28;20053;-90
2021/12/01 04:16:50;;;;;;;3.13;2.30;;;9.20;97.10;;;;;;2082025;28;20554;-90
2021/12/01 04:17:51;;;;;;;4.13;2.70;;;9.20;97.10;;;;;;2081958;28;20387;-90
2021/12/01 04:18:51;;;;;;;3.45;2.38;;;9.10;97.10;;;;;;2081460;28;20029;-91
2021/12/01 04:19:52;;;;;;;3.10;2.30;;;9.20;97.10;;;;;;2073627;28;20026;-90
2021/12/01 04:20:53;;;;;;;4.90;2.65;;;9.20;97.10;;;;;;2073404;28;20870;-90
2021/12/01 04:21:54;;;;;;;3.17;2.58;;;9.20;97.10;;;;;;2088708;28;20110;-90
2021/12/01 04:22:55;;;;;;;3.38;2.60;;;9.20;97.10;;;;;;2081786;28;20033;-90
2021/12/01 04:23:55;;;;;;;3.80;2.90;;;9.20;97.10;;;;;;2065369;28;20054;-91
2021/12/01 04:24:56;;;;;;;3.38;2.70;;;9.20;97.10;;;;;;2065812;28;20026;-90
2021/12/01 04:25:57;;;;;;;3.67;2.95;;;9.10;97.00;;;;;;2082751;28;20037;-90
2021/12/01 04:26:58;;;;;;;3.40;2.80;;;9.10;97.00;;;;;;2081896;28;20064;-90
2021/12/01 04:27:58;;;;;;;3.67;2.65;;;9.20;97.10;;;;;;2073381;28;20044;-91
2021/12/01 04:29:01;;;;;;;4.10;2.95;;;9.10;97.00;;;;;;2085657;28;20088;-91
2021/12/01 04:30:03;;;;;;;3.67;2.88;;;9.10;97.00;;;;;;2089272;28;20483;-91
2021/12/01 04:31:04;;;;;;;3.92;2.97;;;9.10;97.00;;;;;;2081615;28;20024;-90
2021/12/01 04:32:05;;;;;;;3.42;2.80;;;9.10;97.00;;;;;;2087788;28;20415;-90
2021/12/01 04:33:06;;;;;;;3.80;2.58;;;9.10;97.00;;;;;;2072994;28;20037;-90
2021/12/01 04:34:07;;;;;;;4.35;2.70;;;9.10;97.00;;;;;;2073625;28;20038;-90
2021/12/01 04:35:08;;;;;;;3.15;2.35;;;9.10;96.90;;;;;;2090345;28;20442;-90
2021/12/01 04:36:09;;;;;;;4.22;2.55;;;9.10;96.90;;;;;;2089534;28;20027;-90
2021/12/01 04:37:10;;;;;;;4.07;2.60;;;9.10;96.90;;;;;;2081883;28;20033;-91
2021/12/01 04:38:10;;;;;;;4.30;2.70;;;9.10;96.90;;;;;;2073093;28;20026;-90
2021/12/01 04:39:13;;;;;;;4.00;2.72;;;9.10;96.90;;;;;;2049008;28;20134;-90
2021/12/01 04:40:15;;;;;;;3.10;2.40;;;9.10;96.90;;;;;;2067956;28;20026;-90
2021/12/01 04:41:16;;;;;;;3.55;2.60;;;9.10;96.90;;;;;;2082694;28;20121;-91
2021/12/01 04:42:17;;;;;;;3.17;2.35;;;9.10;96.90;;;;;;2089002;28;20542;-90
2021/12/01 04:43:17;;;;;;;3.67;2.42;;;9.10;96.80;;;;;;2080272;28;20513;-90
2021/12/01 04:44:21;;;;;;;3.83;2.40;;;9.10;96.80;;;;;;2081699;28;20079;-90
2021/12/01 04:45:22;;;;;;;3.45;2.42;;;9.10;96.80;;;;;;2089444;28;20479;-89
2021/12/01 04:46:23;;;;;;;3.13;2.60;;;9.10;96.80;;;;;;2073652;28;20022;-88
2021/12/01 04:47:28;;;;;;;3.75;2.60;;;9.10;96.80;;;;;;2065953;28;20122;-88
2021/12/01 04:48:31;;;;;;;3.90;2.45;;;9.10;96.80;;;;;;2074572;28;20049;-89
2021/12/01 04:49:32;;;;;;;3.50;2.65;;;9.10;96.80;;;;;;2089354;28;20028;-88
2021/12/01 04:50:32;;;;;;;2.88;2.33;;;9.10;96.80;;;;;;2090380;28;20055;-86
2021/12/01 04:51:33;;;;;;;3.53;2.60;;;9.10;96.80;;;;;;2081337;28;20037;-87
2021/12/01 04:52:34;;;;;;;3.13;2.33;;;9.10;96.70;;;;;;2080281;28;20022;-89
2021/12/01 04:53:35;;;;;;;3.90;2.60;;;9.10;96.70;;;;;;2080353;28;20395;-90
2021/12/01 04:54:36;;;;;;;3.45;2.33;;;9.10;96.70;;;;;;2089639;28;20104;-89
2021/12/01 04:55:38;;;;;;;3.45;2.50;;;9.10;96.70;;;;;;2089549;28;20520;-89
2021/12/01 04:56:40;;;;;;;3.88;2.75;;;9.10;96.70;;;;;;2073605;28;20058;-90
2021/12/01 04:57:43;;;;;;;3.90;2.70;;;9.10;96.70;;;;;;2073899;28;20025;-90
2021/12/01 04:58:44;;;;;;;3.63;2.55;;;9.10;96.70;;;;;;2088758;28;20509;-90
2021/12/01 04:59:45;;;;;;;4.10;2.95;;;9.10;96.60;;;;;;2081047;28;20037;-90
2021/12/01 05:00:46;;;;;;;3.65;2.80;;;9.10;96.60;;;;;;2073315;28;20032;-89
2021/12/01 05:01:48;;;;;;;3.70;2.47;;;9.10;96.60;;;;;;2076587;28;20033;-90
2021/12/01 05:02:49;;;;;;;3.70;2.58;;;9.10;96.60;;;;;;2076526;28;20131;-89
2021/12/01 05:03:50;;;;;;;4.15;2.65;;;9.10;96.60;;;;;;2085815;28;20038;-90
2021/12/01 05:04:50;;;;;;;3.60;2.58;;;9.10;96.60;;;;;;2095143;28;20052;-89
2021/12/01 05:05:51;;;;;;;3.85;2.70;;;9.10;96.60;;;;;;2098655;28;20055;-88
2021/12/01 05:06:52;;;;;;;4.57;2.92;;;9.00;96.60;;;;;;2098651;28;20029;-88
2021/12/01 05:07:53;;;;;;;3.95;2.80;;;9.10;96.60;;;;;;2095801;28;20064;-88
2021/12/01 05:08:54;;;;;;;3.88;2.83;;;9.10;96.60;;;;;;2081400;28;20037;-89
2021/12/01 05:09:56;;;;;;;3.35;2.60;;;9.00;96.50;;;;;;2081698;28;20024;-89
2021/12/01 05:10:56;;;;;;;4.20;3.33;;;9.00;96.50;;;;;;2089237;28;20033;-89
2021/12/01 05:11:57;;;;;;;3.97;3.08;;;9.10;96.60;;;;;;2080301;28;20045;-90
2021/12/01 05:12:58;;;;;;;4.25;3.38;;;9.00;96.50;;;;;;2081589;28;20210;-88
2021/12/01 05:13:58;;;;;;;4.18;3.47;;;9.00;96.50;;;;;;2080665;28;20120;-90
2021/12/01 05:14:59;;;;;;;5.03;3.58;;;9.00;96.50;;;;;;2073470;28;20033;-90
2021/12/01 05:16:00;;;;;;;4.50;3.30;;;9.00;96.50;;;;;;2080848;28;20036;-90
2021/12/01 05:17:00;;;;;;;4.60;3.30;;;9.00;96.50;;;;;;2093202;28;20526;-89
2021/12/01 05:18:01;;;;;;;4.40;3.40;;;8.90;96.50;;;;;;2090866;28;20029;-89
2021/12/01 05:19:05;;;;;;;4.60;3.40;;;9.00;96.50;;;;;;2081712;28;20033;-90
2021/12/01 05:20:07;;;;;;;4.13;2.83;;;9.00;96.60;;;;;;2074027;28;20090;-90
2021/12/01 05:21:08;;;;;;;4.55;3.35;;;8.90;96.60;;;;;;2071439;28;20025;-89
2021/12/01 05:22:09;;;;;;;4.97;3.45;;;8.90;96.60;;;;;;2072305;28;20068;-90
2021/12/01 05:23:12;;;;;;;5.32;3.45;;;8.90;96.60;;;;;;2071005;28;20018;-90
2021/12/01 05:24:13;;;;;;;4.53;3.60;;;8.90;96.60;;;;;;2074241;28;20064;-90
2021/12/01 05:25:14;;;;;;;4.57;3.63;;;8.90;96.60;;;;;;2086085;28;20495;-89
2021/12/01 05:26:15;;;;;;;4.70;3.80;;;8.90;96.60;;;;;;2081227;28;20030;-90
2021/12/01 05:27:15;;;;;;;4.35;3.50;;;8.90;96.60;;;;;;2081567;28;20029;-90
2021/12/01 05:28:16;;;;;;;5.63;3.50;;;8.90;96.90;;;;;;2073015;28;20026;-89
2021/12/01 05:29:17;;;;;;;4.47;3.30;;;8.90;96.60;;;;;;2064758;28;20133;-91
2021/12/01 05:30:19;;;;;;;3.97;3.05;;;8.90;96.60;;;;;;2072463;28;20045;-90